createdAt,value
2022-11-06T00:01:15.934Z,28.05
2022-11-06T00:03:43.552Z,27.90
2022-11-06T00:06:32.427Z,28.65
2022-11-06T00:09:00.438Z,30.17
2022-11-06T00:11:27.812Z,31.77
2022-11-06T00:13:54.726Z,28.73
2022-11-06T00:16:21.822Z,34.45
2022-11-06T00:18:49.056Z,26.02
2022-11-06T00:21:24.859Z,32.55
2022-11-06T00:23:52.601Z,25.48
2022-11-06T00:26:23.628Z,33.13
2022-11-06T00:28:51.173Z,32.92
2022-11-06T00:31:31.729Z,31.60
2022-11-06T00:33:59.751Z,33.38
2022-11-06T00:36:30.263Z,31.80
2022-11-06T00:38:58.132Z,29.50
2022-11-06T00:41:25.573Z,32.75
2022-11-06T00:43:55.002Z,29.30
2022-11-06T00:46:21.948Z,29.88
2022-11-06T00:48:48.998Z,25.10
2022-11-06T00:51:28.306Z,35.78
2022-11-06T00:53:57.152Z,37.88
2022-11-06T00:56:24.646Z,33.05
2022-11-06T00:58:51.368Z,29.17
2022-11-06T01:01:24.301Z,30.25
2022-11-06T01:03:57.260Z,25.00
2022-11-06T01:06:26.481Z,27.77
2022-11-06T01:08:53.370Z,29.60
2022-11-06T01:11:24.824Z,25.90
2022-11-06T01:13:55.068Z,26.17
2022-11-06T01:16:22.846Z,26.67
2022-11-06T01:18:50.238Z,30.00
2022-11-06T01:21:21.819Z,30.83
2022-11-06T01:23:56.627Z,31.25
2022-11-06T01:26:37.126Z,30.90
2022-11-06T01:29:06.409Z,30.35
2022-11-06T01:31:34.451Z,28.73
2022-11-06T01:34:02.904Z,32.15
2022-11-06T01:36:30.496Z,29.60
2022-11-06T01:39:00.163Z,26.60
2022-11-06T01:41:39.517Z,30.08
2022-11-06T01:44:44.431Z,27.35
2022-11-06T01:47:21.710Z,29.77
2022-11-06T01:49:50.017Z,36.00
2022-11-06T01:52:17.547Z,33.92
2022-11-06T01:54:46.676Z,29.65
2022-11-06T01:57:13.535Z,33.53
2022-11-06T01:59:43.822Z,31.05
2022-11-06T02:02:12.759Z,32.67
2022-11-06T02:04:48.202Z,32.17
2022-11-06T02:07:16.771Z,31.13
2022-11-06T02:09:43.543Z,37.08
2022-11-06T02:12:26.428Z,33.88
2022-11-06T02:15:01.995Z,36.97
2022-11-06T02:17:52.779Z,37.63
2022-11-06T02:20:32.588Z,34.97
2022-11-06T02:23:35.583Z,33.53
2022-11-06T02:26:11.029Z,40.72
2022-11-06T02:28:49.555Z,33.85
2022-11-06T02:31:21.154Z,38.17
2022-11-06T02:36:25.909Z,40.75
2022-11-06T02:38:58.622Z,36.65
2022-11-06T02:41:31.820Z,40.83
2022-11-06T02:43:59.433Z,32.70
2022-11-06T02:46:43.677Z,43.70
2022-11-06T02:49:38.759Z,35.00
2022-11-06T02:52:13.813Z,36.85
2022-11-06T02:54:47.345Z,34.38
2022-11-06T02:57:16.545Z,37.47
2022-11-06T02:59:55.342Z,31.80
2022-11-06T03:02:28.322Z,31.75
2022-11-06T03:05:25.053Z,33.83
2022-11-06T03:08:10.674Z,39.75
2022-11-06T03:10:50.848Z,33.67
2022-11-06T03:13:27.671Z,34.75
2022-11-06T03:16:08.071Z,40.85
2022-11-06T03:19:20.741Z,33.92
2022-11-06T03:21:56.504Z,37.47
2022-11-06T03:24:31.058Z,31.98
2022-11-06T03:27:02.165Z,35.90
2022-11-06T03:29:39.751Z,36.15
2022-11-06T03:32:28.285Z,37.95
2022-11-06T03:35:13.144Z,34.53
2022-11-06T03:37:47.064Z,31.85
2022-11-06T03:40:17.041Z,32.90
2022-11-06T03:42:45.562Z,31.75
2022-11-06T03:45:20.208Z,31.02
2022-11-06T03:48:00.180Z,36.08
2022-11-06T03:50:34.352Z,32.80
2022-11-06T03:53:17.873Z,35.67
2022-11-06T03:55:53.574Z,30.45
2022-11-06T03:58:33.923Z,33.97
2022-11-06T04:01:04.636Z,33.88
2022-11-06T04:03:55.692Z,31.50
2022-11-06T04:06:32.300Z,29.48
2022-11-06T04:09:22.289Z,29.10
2022-11-06T04:12:09.413Z,30.42
2022-11-06T04:14:39.573Z,30.88
2022-11-06T04:17:10.344Z,30.50
2022-11-06T04:19:37.292Z,27.02
2022-11-06T04:22:22.369Z,36.22
2022-11-06T04:25:26.606Z,28.15
2022-11-06T04:27:53.288Z,30.48
2022-11-06T04:30:20.248Z,29.73
2022-11-06T04:33:20.461Z,29.98
2022-11-06T04:36:14.321Z,28.33
2022-11-06T04:39:04.536Z,32.97
2022-11-06T04:41:46.423Z,27.83
2022-11-06T04:44:35.004Z,28.35
2022-11-06T04:47:06.244Z,23.73
2022-11-06T04:49:35.387Z,27.50
2022-11-06T04:52:09.764Z,26.75
2022-11-06T04:54:36.699Z,24.73
2022-11-06T04:57:04.543Z,22.45
2022-11-06T04:59:35.506Z,28.83
2022-11-06T05:02:02.832Z,24.25
2022-11-06T05:04:32.449Z,28.52
2022-11-06T05:06:59.674Z,29.00
2022-11-06T05:09:26.517Z,23.35
2022-11-06T05:11:53.362Z,32.47
2022-11-06T05:14:20.083Z,23.30
2022-11-06T05:16:46.787Z,21.60
2022-11-06T05:19:13.524Z,28.20
2022-11-06T05:21:58.994Z,28.13
2022-11-06T05:24:25.750Z,22.50
2022-11-06T05:26:58.869Z,28.17
2022-11-06T05:29:26.379Z,20.75
2022-11-06T05:31:53.168Z,30.73
2022-11-06T05:34:20.977Z,33.28
2022-11-06T05:36:47.711Z,25.50
2022-11-06T05:39:14.473Z,26.15
2022-11-06T05:41:41.175Z,26.48
2022-11-06T05:44:08.159Z,35.60
2022-11-06T05:46:48.282Z,26.90
2022-11-06T05:49:16.642Z,26.67
2022-11-06T05:51:43.477Z,33.92
2022-11-06T05:54:10.238Z,23.33
2022-11-06T05:56:36.999Z,27.02
2022-11-06T05:59:03.724Z,27.95
2022-11-06T06:01:30.539Z,31.63
2022-11-06T06:03:57.454Z,25.20
2022-11-06T06:06:24.313Z,28.70
2022-11-06T06:08:51.022Z,27.30
2022-11-06T06:11:17.873Z,21.23
2022-11-06T06:13:45.705Z,32.80
2022-11-06T06:16:12.886Z,29.13
2022-11-06T06:18:39.608Z,28.88
2022-11-06T06:21:06.532Z,23.05
2022-11-06T06:23:33.376Z,24.80
2022-11-06T06:26:00.137Z,22.55
2022-11-06T06:28:26.888Z,24.25
2022-11-06T06:30:58.539Z,24.10
2022-11-06T06:33:27.883Z,22.52
2022-11-06T06:35:54.617Z,32.15
2022-11-06T06:38:21.321Z,21.50
2022-11-06T06:40:48.045Z,25.25
2022-11-06T06:43:14.791Z,23.85
2022-11-06T06:45:41.916Z,22.33
2022-11-06T06:48:09.299Z,23.85
2022-11-06T06:50:36.105Z,22.05
2022-11-06T06:53:03.015Z,23.55
2022-11-06T06:55:30.012Z,20.13
2022-11-06T06:57:58.785Z,19.38
2022-11-06T07:00:26.064Z,19.80
2022-11-06T07:02:52.911Z,21.25
2022-11-06T07:05:19.949Z,21.75
2022-11-06T07:07:46.840Z,20.45
2022-11-06T07:10:13.618Z,20.02
2022-11-06T07:12:40.377Z,21.88
2022-11-06T07:15:07.923Z,22.90
2022-11-06T07:17:34.698Z,26.10
2022-11-06T07:20:01.809Z,24.92
2022-11-06T07:22:35.473Z,19.38
2022-11-06T07:25:04.534Z,19.08
2022-11-06T07:27:31.348Z,22.15
2022-11-06T07:30:00.358Z,22.48
2022-11-06T07:32:27.166Z,25.23
2022-11-06T07:34:54.065Z,24.88
2022-11-06T07:37:20.755Z,20.60
2022-11-06T07:39:47.569Z,21.63
2022-11-06T07:42:14.317Z,16.35
2022-11-06T07:44:41.063Z,21.50
2022-11-06T07:47:07.794Z,54.33
2022-11-06T07:49:34.539Z,15.45
2022-11-06T07:52:01.285Z,16.70
2022-11-06T07:54:28.128Z,14.18
2022-11-06T07:56:54.946Z,16.50
2022-11-06T07:59:21.744Z,18.00
2022-11-06T08:01:48.779Z,19.92
2022-11-06T08:04:15.625Z,12.07
2022-11-06T08:06:42.371Z,18.50
2022-11-06T08:09:10.316Z,15.68
2022-11-06T08:11:37.137Z,17.17
2022-11-06T08:14:04.140Z,18.63
2022-11-06T08:16:31.363Z,10.68
2022-11-06T08:18:58.215Z,12.23
2022-11-06T08:21:25.043Z,11.30
2022-11-06T08:23:51.755Z,16.83
2022-11-06T08:26:18.560Z,15.00
2022-11-06T08:28:45.413Z,13.00
2022-11-06T08:31:12.269Z,13.75
2022-11-06T08:33:40.314Z,17.17
2022-11-06T08:36:09.754Z,15.73
2022-11-06T08:38:36.886Z,11.40
2022-11-06T08:41:12.091Z,9.07
2022-11-06T08:43:39.607Z,9.95
2022-11-06T08:46:08.692Z,14.68
2022-11-06T08:48:35.621Z,16.90
2022-11-06T08:51:03.668Z,7.05
2022-11-06T08:53:30.602Z,9.27
2022-11-06T08:55:57.393Z,10.23
2022-11-06T08:58:24.192Z,9.85
2022-11-06T09:00:51.387Z,8.88
2022-11-06T09:03:18.302Z,7.93
2022-11-06T09:05:45.745Z,9.40
2022-11-06T09:08:13.422Z,8.10
2022-11-06T09:10:42.770Z,8.20
2022-11-06T09:13:10.720Z,8.82
2022-11-06T09:15:38.429Z,9.32
2022-11-06T09:18:05.224Z,7.82
2022-11-06T09:20:31.971Z,6.18
2022-11-06T09:23:04.315Z,7.50
2022-11-06T09:25:31.507Z,5.55
2022-11-06T09:27:59.622Z,6.13
2022-11-06T09:30:29.004Z,7.85
2022-11-06T09:32:58.100Z,8.50
2022-11-06T09:35:26.522Z,8.00
2022-11-06T09:37:53.277Z,6.50
2022-11-06T09:40:26.601Z,7.53
2022-11-06T09:43:43.176Z,9.82
2022-11-06T09:46:27.883Z,7.75
2022-11-06T09:49:08.501Z,10.68
2022-11-06T09:51:41.870Z,11.03
2022-11-06T09:54:17.710Z,9.35
2022-11-06T09:56:47.943Z,8.75
2022-11-06T09:59:17.675Z,6.00
2022-11-06T10:01:50.607Z,5.70
2022-11-06T10:04:41.027Z,9.45
2022-11-06T10:07:33.434Z,8.88
2022-11-06T10:10:02.495Z,7.35
2022-11-06T10:12:47.816Z,7.40
2022-11-06T10:15:28.037Z,5.20
2022-11-06T10:18:10.484Z,6.22
2022-11-06T10:21:03.012Z,5.57
2022-11-06T10:23:39.119Z,7.30
2022-11-06T10:26:17.332Z,8.02
2022-11-06T10:28:59.297Z,9.23
2022-11-06T10:31:45.458Z,6.22
2022-11-06T10:34:21.197Z,9.60
2022-11-06T10:36:52.823Z,5.13
2022-11-06T10:39:23.993Z,4.68
2022-11-06T10:42:15.555Z,6.40
2022-11-06T10:47:17.114Z,6.60
2022-11-06T10:49:54.261Z,6.43
2022-11-06T10:52:33.068Z,8.10
2022-11-06T10:55:31.183Z,6.93
2022-11-06T10:58:12.684Z,10.75
2022-11-06T11:00:40.435Z,12.55
2022-11-06T11:03:24.271Z,37.58
2022-11-06T11:05:52.336Z,16.50
2022-11-06T11:08:31.343Z,14.30
2022-11-06T11:11:05.211Z,6.20
2022-11-06T11:13:33.510Z,3.03
2022-11-06T11:16:02.777Z,4.90
2022-11-06T11:18:34.072Z,6.70
2022-11-06T11:21:28.879Z,4.72
2022-11-06T11:24:06.369Z,4.60
2022-11-06T11:26:39.615Z,7.80
2022-11-06T11:29:48.044Z,5.05
2022-11-06T11:32:17.447Z,5.78
2022-11-06T11:34:52.592Z,3.95
2022-11-06T11:37:27.624Z,4.97
2022-11-06T11:39:54.833Z,5.43
2022-11-06T11:42:30.575Z,8.27
2022-11-06T11:45:21.452Z,12.18
2022-11-06T11:47:51.434Z,4.20
2022-11-06T11:50:34.481Z,6.68
2022-11-06T11:53:20.337Z,7.90
2022-11-06T11:55:50.238Z,7.38
2022-11-06T11:58:26.836Z,19.48
2022-11-06T12:01:05.401Z,6.65
2022-11-06T12:03:38.473Z,3.97
2022-11-06T12:06:12.920Z,22.63
2022-11-06T12:08:46.229Z,8.52
2022-11-06T12:11:25.983Z,20.10
2022-11-06T12:14:30.633Z,78.18
2022-11-06T12:17:13.551Z,249.77
2022-11-06T12:19:44.823Z,40.13
2022-11-06T12:22:43.109Z,10.85
2022-11-06T12:25:41.321Z,103.65
2022-11-06T12:28:15.186Z,10.93
2022-11-06T12:30:46.074Z,17.85
2022-11-06T12:33:27.310Z,7.63
2022-11-06T12:36:12.832Z,4.45
2022-11-06T12:38:46.011Z,10.68
2022-11-06T12:41:19.449Z,20.45
2022-11-06T12:43:48.082Z,14.15
2022-11-06T12:46:27.803Z,10.75
2022-11-06T12:49:03.384Z,17.05
2022-11-06T12:51:49.819Z,9.50
2022-11-06T12:54:31.836Z,6.45
2022-11-06T12:57:17.678Z,4.25
2022-11-06T13:00:06.595Z,5.45
2022-11-06T13:02:39.329Z,5.35
2022-11-06T13:05:22.873Z,16.45
2022-11-06T13:08:04.628Z,26.42
2022-11-06T13:10:44.087Z,7.60
2022-11-06T13:13:15.236Z,7.65
2022-11-06T13:16:11.770Z,14.10
2022-11-06T13:18:51.951Z,6.43
2022-11-06T13:21:30.022Z,6.18
2022-11-06T13:24:07.868Z,7.45
2022-11-06T13:26:47.579Z,6.82
2022-11-06T13:29:17.767Z,8.43
2022-11-06T13:31:44.841Z,5.55
2022-11-06T13:34:22.183Z,7.85
2022-11-06T13:36:49.747Z,8.55
2022-11-06T13:39:24.407Z,5.22
2022-11-06T13:41:53.465Z,7.38
2022-11-06T13:44:21.744Z,10.57
2022-11-06T13:46:52.752Z,6.50
2022-11-06T13:49:46.988Z,4.00
2022-11-06T13:52:35.557Z,23.42
2022-11-06T13:55:39.190Z,76.60
2022-11-06T13:58:20.811Z,34.97
2022-11-06T14:03:58.935Z,19.13
2022-11-06T14:06:29.184Z,20.75
2022-11-06T14:09:01.144Z,25.38
2022-11-06T14:11:37.481Z,24.27
2022-11-06T14:14:07.300Z,8.88
2022-11-06T14:16:37.428Z,14.90
2022-11-06T14:19:14.092Z,10.20
2022-11-06T14:21:45.351Z,11.88
2022-11-06T14:24:30.105Z,9.65
2022-11-06T14:26:57.772Z,9.10
2022-11-06T14:29:27.799Z,9.48
2022-11-06T14:32:02.275Z,11.45
2022-11-06T14:34:31.761Z,6.53
2022-11-06T14:36:58.871Z,4.95
2022-11-06T14:39:56.594Z,6.57
2022-11-06T14:42:45.171Z,11.05
2022-11-06T14:45:17.535Z,13.38
2022-11-06T14:47:49.960Z,14.90
2022-11-06T14:50:19.453Z,8.57
2022-11-06T14:52:55.643Z,26.70
2022-11-06T14:55:32.892Z,12.73
2022-11-06T14:58:41.588Z,18.42
2022-11-06T15:01:11.544Z,17.17
2022-11-06T15:03:50.655Z,32.58
2022-11-06T15:06:17.367Z,32.72
2022-11-06T15:08:47.261Z,18.63
2022-11-06T15:11:32.081Z,8.95
2022-11-06T15:14:07.702Z,11.77
2022-11-06T15:16:49.699Z,9.10
2022-11-06T15:19:42.022Z,14.87
2022-11-06T15:22:28.152Z,8.95
2022-11-06T15:25:16.370Z,10.20
2022-11-06T15:28:11.503Z,22.95
2022-11-06T15:30:45.500Z,31.27
2022-11-06T15:33:17.769Z,16.73
2022-11-06T15:35:47.745Z,22.08
2022-11-06T15:38:19.908Z,18.13
2022-11-06T15:40:47.748Z,16.27
2022-11-06T15:43:17.765Z,15.55
2022-11-06T15:45:45.491Z,16.30
2022-11-06T15:48:23.070Z,16.35
2022-11-06T15:50:49.782Z,12.88
2022-11-06T15:53:25.714Z,19.48
2022-11-06T15:56:17.957Z,13.00
2022-11-06T15:58:44.738Z,15.55
2022-11-06T16:01:11.860Z,14.70
2022-11-06T16:03:49.301Z,15.95
2022-11-06T16:06:16.899Z,22.63
2022-11-06T16:08:44.997Z,20.80
2022-11-06T16:11:17.900Z,23.25
2022-11-06T16:13:46.601Z,26.60
2022-11-06T16:16:33.831Z,22.40
2022-11-06T16:19:02.946Z,31.45
2022-11-06T16:21:35.776Z,30.00
2022-11-06T16:24:12.549Z,32.67
2022-11-06T16:26:45.741Z,34.13
2022-11-06T16:29:22.169Z,32.25
2022-11-06T16:31:58.408Z,40.75
2022-11-06T16:34:30.986Z,34.08
2022-11-06T16:36:59.341Z,28.25
2022-11-06T16:39:40.027Z,31.67
2022-11-06T16:42:29.469Z,30.00
2022-11-06T16:45:08.588Z,33.33
2022-11-06T16:47:35.985Z,32.17
2022-11-06T16:50:05.981Z,34.13
2022-11-06T16:52:40.383Z,33.00
2022-11-06T16:55:17.397Z,39.03
2022-11-06T16:57:55.055Z,38.30
2022-11-06T17:00:21.815Z,34.13
2022-11-06T17:02:53.512Z,42.10
2022-11-06T17:05:26.880Z,28.27
2022-11-06T17:08:18.656Z,42.05
2022-11-06T17:10:49.903Z,28.10
2022-11-06T17:13:25.490Z,27.90
2022-11-06T17:15:57.142Z,24.90
2022-11-06T17:20:59.584Z,29.90
2022-11-06T17:23:27.868Z,21.38
2022-11-06T17:25:59.543Z,22.73
2022-11-06T17:30:54.930Z,21.23
2022-11-06T17:33:21.888Z,23.20
2022-11-06T17:35:49.326Z,18.20
2022-11-06T17:38:17.490Z,18.25
2022-11-06T17:40:45.711Z,18.85
2022-11-06T17:43:13.030Z,16.65
2022-11-06T17:45:42.273Z,16.98
2022-11-06T17:48:09.097Z,22.60
2022-11-06T17:50:55.927Z,26.88
2022-11-06T17:53:22.744Z,26.75
2022-11-06T17:55:49.584Z,24.38
2022-11-06T17:58:16.735Z,24.58
2022-11-06T18:00:43.688Z,33.42
2022-11-06T18:03:20.520Z,30.58
2022-11-06T18:05:47.516Z,34.42
2022-11-06T18:08:15.151Z,38.85
2022-11-06T18:10:42.322Z,42.40
2022-11-06T18:13:09.102Z,37.83
2022-11-06T18:15:36.679Z,35.38
2022-11-06T18:18:04.297Z,36.88
2022-11-06T18:20:31.258Z,36.58
2022-11-06T18:22:59.014Z,38.72
2022-11-06T18:25:26.420Z,35.17
2022-11-06T18:27:53.170Z,47.05
2022-11-06T18:30:19.933Z,36.53
2022-11-06T18:32:46.907Z,32.03
2022-11-06T18:35:13.851Z,38.38
2022-11-06T18:37:40.856Z,38.97
2022-11-06T18:40:08.185Z,39.60
2022-11-06T18:42:35.000Z,38.63
2022-11-06T18:45:02.030Z,40.97
2022-11-06T18:47:28.926Z,42.22
2022-11-06T18:49:55.866Z,40.22
2022-11-06T18:52:44.294Z,45.33
2022-11-06T18:55:10.241Z,36.53
2022-11-06T18:57:39.864Z,39.73
2022-11-06T19:00:07.497Z,47.85
2022-11-06T19:02:34.819Z,44.40
2022-11-06T19:05:02.624Z,48.50
2022-11-06T19:07:29.692Z,63.40
2022-11-06T19:09:56.641Z,63.07
2022-11-06T19:12:23.393Z,64.80
2022-11-06T19:14:50.293Z,66.60
2022-11-06T19:17:17.066Z,73.53
2022-11-06T19:19:43.855Z,77.27
2022-11-06T19:22:11.575Z,63.30
2022-11-06T19:24:38.458Z,60.80
2022-11-06T19:27:05.608Z,50.10
2022-11-06T19:29:32.613Z,48.27
2022-11-06T19:32:02.272Z,47.33
2022-11-06T19:34:30.752Z,44.50
2022-11-06T19:36:58.941Z,41.25
2022-11-06T19:39:25.666Z,47.47
2022-11-06T19:41:52.441Z,40.70
2022-11-06T19:44:19.224Z,40.77
2022-11-06T19:46:46.128Z,31.85
2022-11-06T19:49:12.989Z,34.87
2022-11-06T19:51:41.180Z,30.05
2022-11-06T19:54:09.489Z,34.28
2022-11-06T19:56:36.357Z,30.80
2022-11-06T19:59:24.067Z,31.47
2022-11-06T20:01:51.254Z,35.72
2022-11-06T20:04:18.576Z,35.33
2022-11-06T20:06:45.388Z,31.67
2022-11-06T20:09:12.139Z,30.67
2022-11-06T20:11:39.039Z,34.88
2022-11-06T20:14:05.802Z,31.13
2022-11-06T20:16:33.150Z,34.33
2022-11-06T20:19:00.033Z,30.17
2022-11-06T20:21:39.169Z,30.80
2022-11-06T20:24:06.479Z,32.42
2022-11-06T20:26:33.667Z,35.40
2022-11-06T20:29:00.505Z,32.78
2022-11-06T20:31:27.443Z,37.35
2022-11-06T20:33:55.123Z,40.78
2022-11-06T20:36:24.962Z,40.63
2022-11-06T20:38:56.512Z,36.80
2022-11-06T20:41:23.988Z,37.92
2022-11-06T20:43:51.421Z,34.38
2022-11-06T20:46:19.376Z,33.95
2022-11-06T20:48:47.177Z,34.90
2022-11-06T20:51:19.964Z,35.97
2022-11-06T20:53:47.001Z,35.55
2022-11-06T20:56:17.166Z,41.88
2022-11-06T20:58:44.710Z,38.83
2022-11-06T21:01:19.225Z,39.80
2022-11-06T21:03:48.390Z,41.88
2022-11-06T21:06:16.057Z,41.50
2022-11-06T21:08:43.555Z,39.90
2022-11-06T21:11:14.022Z,45.58
2022-11-06T21:13:41.549Z,41.95
2022-11-06T21:16:15.097Z,44.35
2022-11-06T21:18:42.805Z,46.72
2022-11-06T21:21:12.030Z,53.58
2022-11-06T21:23:39.441Z,52.33
2022-11-06T21:26:15.392Z,49.22
2022-11-06T21:28:43.542Z,44.17
2022-11-06T21:31:13.050Z,43.90
2022-11-06T21:33:43.934Z,43.67
2022-11-06T21:36:16.921Z,38.95
2022-11-06T21:38:44.316Z,39.33
2022-11-06T21:41:17.129Z,38.10
2022-11-06T21:43:44.043Z,44.15
2022-11-06T21:46:12.835Z,45.15
2022-11-06T21:48:46.254Z,52.80
2022-11-06T21:51:16.773Z,57.28
2022-11-06T21:54:01.976Z,41.08
2022-11-06T21:56:29.127Z,54.72
2022-11-06T21:58:58.299Z,47.65
2022-11-06T22:01:26.943Z,53.67
2022-11-06T22:03:54.464Z,56.97
2022-11-06T22:06:25.061Z,64.13
2022-11-06T22:08:53.939Z,72.53
2022-11-06T22:11:21.929Z,79.35
2022-11-06T22:13:50.153Z,68.55
2022-11-06T22:16:21.222Z,94.88
2022-11-06T22:18:48.227Z,72.95
2022-11-06T22:21:34.797Z,77.95
2022-11-06T22:24:01.819Z,79.43
2022-11-06T22:26:30.915Z,85.65
2022-11-06T22:29:03.718Z,74.28
2022-11-06T22:31:31.201Z,79.97
2022-11-06T22:33:58.297Z,83.13
2022-11-06T22:36:25.992Z,70.63
2022-11-06T22:38:52.991Z,66.53
2022-11-06T22:41:22.815Z,65.10
2022-11-06T22:43:50.186Z,66.13
2022-11-06T22:46:21.316Z,70.28
2022-11-06T22:48:48.968Z,77.63
2022-11-06T22:51:18.445Z,68.45
2022-11-06T22:53:45.509Z,65.60
2022-11-06T22:56:12.985Z,65.03
2022-11-06T22:58:40.694Z,61.28
2022-11-06T23:01:08.098Z,65.72
2022-11-06T23:03:35.132Z,64.25
2022-11-06T23:06:07.184Z,58.47
2022-11-06T23:08:34.667Z,54.35
2022-11-06T23:11:10.951Z,59.15
2022-11-06T23:13:38.336Z,54.35
2022-11-06T23:16:09.086Z,53.33
2022-11-06T23:18:36.229Z,51.58
2022-11-06T23:21:13.518Z,52.85
2022-11-06T23:23:40.935Z,57.60
2022-11-06T23:26:16.000Z,55.35
2022-11-06T23:28:43.429Z,50.78
2022-11-06T23:31:11.754Z,47.80
2022-11-06T23:33:38.482Z,50.15
2022-11-06T23:36:17.621Z,52.55
2022-11-06T23:38:44.990Z,45.85
2022-11-06T23:41:32.899Z,40.72
2022-11-06T23:44:01.036Z,52.95
2022-11-06T23:46:30.779Z,53.00
2022-11-06T23:48:57.956Z,47.95
2022-11-06T23:51:26.690Z,49.03
2022-11-06T23:53:54.154Z,43.13
2022-11-06T23:56:20.924Z,46.28
2022-11-06T23:58:47.739Z,44.33
